createdAt,value
2022-11-20T00:00:18.478Z,99.19
2022-11-20T00:02:45.035Z,98.80
2022-11-20T00:05:11.615Z,99.35
2022-11-20T00:07:38.095Z,99.39
2022-11-20T00:10:04.984Z,99.20
2022-11-20T00:12:32.047Z,99.57
2022-11-20T00:14:58.527Z,99.48
2022-11-20T00:17:25.031Z,99.19
2022-11-20T00:19:51.527Z,99.59
2022-11-20T00:22:18.143Z,98.89
2022-11-20T00:24:44.726Z,99.00
2022-11-20T00:27:11.235Z,98.92
2022-11-20T00:29:37.759Z,99.05
2022-11-20T00:32:04.308Z,99.31
2022-11-20T00:34:30.831Z,99.29
2022-11-20T00:36:57.307Z,99.28
2022-11-20T00:39:24.005Z,98.78
2022-11-20T00:41:51.103Z,98.74
2022-11-20T00:44:17.613Z,99.08
2022-11-20T00:46:44.122Z,98.93
2022-11-20T00:49:10.593Z,98.81
2022-11-20T00:51:37.090Z,98.69
2022-11-20T00:54:03.644Z,98.68
2022-11-20T00:56:30.179Z,98.34
2022-11-20T00:58:59.734Z,98.84
2022-11-20T01:01:27.165Z,98.95
2022-11-20T01:03:57.612Z,99.34
2022-11-20T01:06:29.092Z,99.21
2022-11-20T01:08:57.878Z,99.64
2022-11-20T01:11:27.642Z,99.92
2022-11-20T01:13:55.491Z,99.82
2022-11-20T01:16:29.309Z,99.67
2022-11-20T01:18:58.824Z,99.55
2022-11-20T01:21:30.683Z,99.38
2022-11-20T01:23:57.291Z,99.49
2022-11-20T01:26:28.982Z,99.00
2022-11-20T01:28:56.232Z,99.12
2022-11-20T01:31:27.530Z,98.87
2022-11-20T01:33:56.571Z,98.77
2022-11-20T01:36:24.935Z,98.75
2022-11-20T01:38:56.405Z,98.36
2022-11-20T01:41:42.494Z,98.45
2022-11-20T01:44:12.527Z,98.96
2022-11-20T01:47:00.069Z,98.25
2022-11-20T01:49:35.578Z,98.08
2022-11-20T01:52:24.111Z,98.28
2022-11-20T01:54:59.902Z,98.35
2022-11-20T01:57:29.172Z,98.39
2022-11-20T02:00:01.098Z,98.02
2022-11-20T02:02:28.319Z,98.34
2022-11-20T02:05:01.980Z,98.04
2022-11-20T02:07:28.854Z,98.09
2022-11-20T02:09:58.683Z,98.07
2022-11-20T02:12:44.029Z,98.15
2022-11-20T02:15:10.748Z,98.24
2022-11-20T02:17:37.382Z,97.95
2022-11-20T02:20:05.349Z,98.05
2022-11-20T02:22:43.882Z,97.93
2022-11-20T02:25:11.333Z,98.14
2022-11-20T02:27:37.796Z,98.16
2022-11-20T02:30:11.815Z,97.97
2022-11-20T02:32:39.129Z,97.74
2022-11-20T02:35:10.296Z,97.79
2022-11-20T02:37:41.867Z,98.17
2022-11-20T02:40:08.872Z,98.22
2022-11-20T02:42:37.118Z,97.77
2022-11-20T02:45:05.132Z,97.97
2022-11-20T02:47:31.979Z,98.16
2022-11-20T02:49:58.525Z,98.08
2022-11-20T02:52:25.520Z,97.74
2022-11-20T02:54:52.154Z,98.26
2022-11-20T02:57:18.734Z,97.63
2022-11-20T02:59:45.210Z,97.72
2022-11-20T03:02:11.769Z,97.69
2022-11-20T03:04:38.261Z,97.94
2022-11-20T03:07:05.015Z,97.75
2022-11-20T03:09:31.705Z,98.11
2022-11-20T03:11:58.176Z,97.75
2022-11-20T03:14:24.690Z,97.93
2022-11-20T03:16:51.187Z,97.43
2022-11-20T03:19:21.424Z,97.77
2022-11-20T03:21:48.284Z,97.56
2022-11-20T03:24:15.253Z,97.41
2022-11-20T03:26:41.988Z,97.72
2022-11-20T03:29:09.005Z,97.88
2022-11-20T03:31:38.270Z,97.58
2022-11-20T03:34:05.325Z,97.78
2022-11-20T03:36:35.287Z,97.63
2022-11-20T03:39:01.802Z,97.67
2022-11-20T03:41:36.256Z,97.48
2022-11-20T03:44:05.065Z,97.46
2022-11-20T03:46:32.161Z,97.47
2022-11-20T03:48:58.979Z,97.48
2022-11-20T03:51:26.640Z,97.43
2022-11-20T03:53:58.255Z,97.15
2022-11-20T03:56:27.520Z,97.01
2022-11-20T03:58:54.335Z,97.18
2022-11-20T04:01:23.231Z,96.97
2022-11-20T04:03:52.133Z,96.95
2022-11-20T04:06:25.794Z,96.96
2022-11-20T04:08:54.705Z,96.85
2022-11-20T04:11:32.390Z,96.31
2022-11-20T04:14:01.111Z,96.30
2022-11-20T04:16:30.613Z,96.23
2022-11-20T04:19:02.101Z,96.42
2022-11-20T04:21:29.389Z,96.17
2022-11-20T04:23:57.840Z,96.26
2022-11-20T04:26:26.698Z,96.17
2022-11-20T04:28:53.193Z,96.29
2022-11-20T04:31:28.184Z,95.97
2022-11-20T04:33:55.090Z,96.42
2022-11-20T04:36:23.858Z,96.05
2022-11-20T04:39:03.940Z,95.63
2022-11-20T04:41:33.164Z,95.96
2022-11-20T04:44:03.919Z,95.76
2022-11-20T04:46:35.977Z,95.56
2022-11-20T04:49:02.498Z,95.59
2022-11-20T04:51:29.158Z,95.70
2022-11-20T04:53:55.796Z,95.31
2022-11-20T04:56:22.455Z,95.15
2022-11-20T04:58:49.113Z,95.35
2022-11-20T05:01:18.968Z,94.74
2022-11-20T05:03:46.278Z,95.06
2022-11-20T05:06:15.938Z,94.46
2022-11-20T05:08:43.151Z,94.58
2022-11-20T05:11:14.662Z,94.13
2022-11-20T05:13:41.596Z,94.40
2022-11-20T05:16:11.024Z,94.01
2022-11-20T05:18:38.944Z,94.29
2022-11-20T05:21:06.219Z,93.89
2022-11-20T05:23:33.514Z,94.20
2022-11-20T05:26:00.283Z,93.88
2022-11-20T05:28:28.473Z,94.20
2022-11-20T05:30:55.360Z,94.15
2022-11-20T05:33:22.287Z,94.13
2022-11-20T05:35:49.447Z,93.71
2022-11-20T05:38:16.338Z,93.55
2022-11-20T05:40:42.905Z,93.93
2022-11-20T05:43:09.444Z,93.63
2022-11-20T05:45:36.167Z,93.65
2022-11-20T05:48:02.750Z,93.26
2022-11-20T05:50:29.613Z,93.54
2022-11-20T05:52:58.543Z,93.76
2022-11-20T05:55:25.016Z,93.84
2022-11-20T05:57:52.874Z,94.27
2022-11-20T06:00:19.373Z,94.31
2022-11-20T06:02:45.884Z,94.11
2022-11-20T06:05:12.391Z,94.29
2022-11-20T06:07:38.945Z,94.84
2022-11-20T06:10:08.930Z,94.51
2022-11-20T06:12:35.610Z,94.75
2022-11-20T06:15:02.107Z,95.41
2022-11-20T06:17:28.601Z,95.25
2022-11-20T06:19:55.121Z,95.61
2022-11-20T06:22:21.640Z,95.61
2022-11-20T06:24:48.702Z,95.27
2022-11-20T06:27:15.544Z,94.64
2022-11-20T06:29:42.025Z,94.93
2022-11-20T06:32:08.541Z,95.03
2022-11-20T06:34:34.980Z,95.43
2022-11-20T06:37:01.530Z,95.28
2022-11-20T06:39:28.108Z,95.48
2022-11-20T06:41:58.737Z,95.44
2022-11-20T06:44:25.987Z,94.93
2022-11-20T06:46:52.471Z,95.15
2022-11-20T06:49:19.179Z,94.47
2022-11-20T06:51:45.803Z,94.14
2022-11-20T06:54:12.301Z,93.85
2022-11-20T06:56:38.738Z,93.47
2022-11-20T06:59:07.049Z,93.77
2022-11-20T07:01:33.612Z,93.76
2022-11-20T07:04:00.142Z,93.44
2022-11-20T07:06:26.651Z,93.81
2022-11-20T07:08:55.682Z,94.01
2022-11-20T07:11:22.140Z,93.83
2022-11-20T07:13:48.623Z,93.78
2022-11-20T07:16:15.198Z,93.43
2022-11-20T07:18:44.815Z,93.40
2022-11-20T07:21:15.827Z,93.26
2022-11-20T07:23:42.320Z,93.33
2022-11-20T07:26:11.273Z,93.66
2022-11-20T07:28:38.313Z,93.22
2022-11-20T07:31:05.928Z,93.30
2022-11-20T07:33:32.647Z,93.46
2022-11-20T07:36:02.620Z,93.83
2022-11-20T07:38:29.387Z,93.68
2022-11-20T07:40:57.666Z,93.72
2022-11-20T07:43:26.045Z,93.24
2022-11-20T07:45:52.556Z,93.71
2022-11-20T07:48:18.999Z,93.57
2022-11-20T07:50:45.529Z,93.88
2022-11-20T07:53:13.347Z,94.06
2022-11-20T07:55:39.792Z,93.81
2022-11-20T07:58:06.568Z,94.18
2022-11-20T08:00:33.095Z,94.03
2022-11-20T08:02:59.710Z,93.70
2022-11-20T08:05:26.203Z,93.63
2022-11-20T08:07:52.737Z,94.20
2022-11-20T08:10:19.402Z,94.17
2022-11-20T08:13:09.382Z,94.19
2022-11-20T08:15:36.649Z,93.87
2022-11-20T08:18:30.043Z,93.84
2022-11-20T08:20:55.138Z,93.64
2022-11-20T08:23:23.498Z,92.64
2022-11-20T08:25:51.911Z,92.24
2022-11-20T08:28:21.669Z,93.17
2022-11-20T08:30:48.920Z,93.54
2022-11-20T08:33:15.476Z,93.96
2022-11-20T08:35:42.660Z,93.96
2022-11-20T08:38:10.033Z,93.31
2022-11-20T08:40:36.609Z,93.26
2022-11-20T08:43:03.152Z,93.17
2022-11-20T08:45:34.059Z,92.33
2022-11-20T08:48:03.148Z,94.18
2022-11-20T08:50:30.210Z,94.35
2022-11-20T08:52:56.685Z,94.26
2022-11-20T08:55:26.686Z,94.29
2022-11-20T08:57:53.152Z,94.62
2022-11-20T09:00:19.799Z,94.52
2022-11-20T09:02:46.287Z,94.61
2022-11-20T09:05:12.844Z,93.96
2022-11-20T09:07:39.310Z,93.85
2022-11-20T09:12:53.903Z,93.77
2022-11-20T09:15:20.468Z,94.50
2022-11-20T09:17:53.320Z,94.52
2022-11-20T09:20:20.094Z,94.22
2022-11-20T09:22:46.584Z,93.70
2022-11-20T09:25:14.545Z,94.00
2022-11-20T09:27:44.537Z,93.83
2022-11-20T09:30:11.546Z,94.04
2022-11-20T09:32:40.306Z,93.42
2022-11-20T09:35:07.421Z,94.05
2022-11-20T09:37:33.883Z,93.38
2022-11-20T09:40:00.378Z,92.25
2022-11-20T09:42:48.407Z,91.42
2022-11-20T09:45:26.155Z,91.38
2022-11-20T09:48:19.522Z,90.79
2022-11-20T09:51:16.970Z,90.04
2022-11-20T09:54:14.195Z,88.64
2022-11-20T09:56:45.013Z,88.48
2022-11-20T09:59:37.545Z,88.77
2022-11-20T10:02:16.074Z,89.22
2022-11-20T10:04:48.766Z,89.71
2022-11-20T10:07:32.636Z,90.83
2022-11-20T10:10:00.578Z,91.05
2022-11-20T10:13:01.618Z,91.33
2022-11-20T10:15:43.318Z,91.82
2022-11-20T10:18:28.528Z,91.87
2022-11-20T10:21:19.027Z,92.05
2022-11-20T10:24:04.905Z,92.34
2022-11-20T10:26:34.376Z,92.59
2022-11-20T10:29:35.134Z,92.72
2022-11-20T10:32:05.552Z,92.84
2022-11-20T10:35:02.601Z,93.50
2022-11-20T10:37:32.102Z,93.36
2022-11-20T10:40:18.256Z,93.37
2022-11-20T10:42:52.072Z,93.08
2022-11-20T10:45:30.515Z,92.67
2022-11-20T10:48:11.012Z,92.56
2022-11-20T10:50:41.264Z,92.58
2022-11-20T10:53:44.602Z,92.74
2022-11-20T10:56:19.461Z,92.75
2022-11-20T10:59:07.618Z,92.73
2022-11-20T11:01:42.942Z,92.91
2022-11-20T11:04:44.030Z,92.39
2022-11-20T11:07:16.399Z,92.09
2022-11-20T11:09:49.659Z,91.79
2022-11-20T11:12:16.696Z,91.92
2022-11-20T11:14:54.435Z,91.31
2022-11-20T11:17:26.565Z,90.74
2022-11-20T11:20:00.614Z,89.70
2022-11-20T11:22:30.435Z,89.20
2022-11-20T11:24:56.976Z,88.77
2022-11-20T11:27:23.506Z,87.75
2022-11-20T11:29:49.967Z,87.52
2022-11-20T11:32:22.644Z,87.55
2022-11-20T11:35:03.931Z,87.25
2022-11-20T11:37:39.630Z,87.08
2022-11-20T11:40:24.794Z,86.62
2022-11-20T11:43:01.743Z,87.11
2022-11-20T11:45:28.516Z,86.57
2022-11-20T11:47:57.542Z,86.64
2022-11-20T11:50:29.320Z,85.25
2022-11-20T11:53:15.745Z,84.50
2022-11-20T11:55:47.387Z,85.18
2022-11-20T11:58:23.039Z,85.76
2022-11-20T12:01:05.178Z,84.96
2022-11-20T12:03:40.256Z,85.71
2022-11-20T12:06:13.012Z,86.04
2022-11-20T12:09:12.360Z,86.02
2022-11-20T12:11:55.183Z,85.80
2022-11-20T12:14:29.472Z,84.79
2022-11-20T12:16:58.485Z,84.72
2022-11-20T12:19:25.777Z,84.86
2022-11-20T12:22:00.016Z,86.30
2022-11-20T12:24:40.049Z,87.69
2022-11-20T12:27:16.231Z,88.33
2022-11-20T12:29:54.891Z,89.10
2022-11-20T12:32:55.225Z,89.01
2022-11-20T12:35:41.396Z,88.92
2022-11-20T12:38:32.597Z,88.26
2022-11-20T12:41:40.512Z,87.16
2022-11-20T12:44:28.440Z,87.91
2022-11-20T12:47:16.358Z,87.91
2022-11-20T12:49:54.605Z,87.38
2022-11-20T12:52:34.925Z,86.55
2022-11-20T12:55:16.712Z,86.54
2022-11-20T12:57:58.077Z,85.54
2022-11-20T13:00:28.836Z,85.18
2022-11-20T13:02:58.324Z,85.59
2022-11-20T13:05:55.724Z,86.31
2022-11-20T13:08:26.922Z,86.56
2022-11-20T13:11:37.839Z,86.92
2022-11-20T13:14:30.498Z,85.92
2022-11-20T13:17:06.762Z,84.48
2022-11-20T13:19:34.116Z,83.32
2022-11-20T13:22:00.749Z,82.43
2022-11-20T13:24:31.677Z,82.16
2022-11-20T13:27:05.665Z,82.63
2022-11-20T13:29:34.053Z,82.51
2022-11-20T13:32:27.056Z,82.83
2022-11-20T13:34:56.096Z,82.66
2022-11-20T13:37:30.905Z,82.62
2022-11-20T13:40:09.461Z,83.65
2022-11-20T13:42:52.607Z,83.24
2022-11-20T13:45:28.660Z,82.76
2022-11-20T13:47:56.517Z,82.98
2022-11-20T13:50:37.520Z,83.02
2022-11-20T13:53:09.857Z,82.31
2022-11-20T13:55:57.270Z,81.38
2022-11-20T13:58:51.441Z,80.54
2022-11-20T14:01:20.956Z,80.12
2022-11-20T14:04:05.714Z,80.65
2022-11-20T14:06:39.747Z,81.03
2022-11-20T14:09:06.233Z,81.27
2022-11-20T14:11:32.779Z,80.73
2022-11-20T14:14:22.007Z,80.27
2022-11-20T14:16:49.728Z,80.01
2022-11-20T14:19:22.251Z,79.34
2022-11-20T14:21:52.255Z,79.98
2022-11-20T14:24:24.315Z,80.55
2022-11-20T14:26:52.699Z,81.07
2022-11-20T14:29:22.565Z,81.22
2022-11-20T14:31:54.290Z,81.34
2022-11-20T14:34:26.910Z,81.42
2022-11-20T14:36:58.057Z,81.11
2022-11-20T14:39:31.828Z,81.61
2022-11-20T14:41:58.461Z,82.04
2022-11-20T14:44:31.568Z,81.71
2022-11-20T14:47:00.923Z,81.79
2022-11-20T14:49:29.597Z,81.97
2022-11-20T14:52:11.490Z,82.91
2022-11-20T14:54:48.974Z,83.08
2022-11-20T14:57:36.295Z,83.64
2022-11-20T15:00:11.733Z,83.51
2022-11-20T15:02:47.079Z,83.27
2022-11-20T15:05:15.117Z,83.12
2022-11-20T15:07:46.960Z,82.83
2022-11-20T15:10:19.271Z,82.76
2022-11-20T15:12:50.352Z,82.42
2022-11-20T15:15:22.144Z,82.65
2022-11-20T15:17:48.662Z,82.81
2022-11-20T15:20:17.486Z,82.92
2022-11-20T15:22:44.403Z,83.17
2022-11-20T15:25:18.710Z,83.12
2022-11-20T15:27:46.461Z,83.78
2022-11-20T15:30:19.732Z,84.38
2022-11-20T15:32:47.267Z,84.74
2022-11-20T15:35:14.910Z,84.73
2022-11-20T15:37:41.973Z,84.73
2022-11-20T15:40:09.549Z,84.67
2022-11-20T15:42:37.486Z,84.86
2022-11-20T15:45:07.381Z,85.29
2022-11-20T15:47:38.462Z,85.69
2022-11-20T15:50:10.322Z,86.09
2022-11-20T15:52:42.033Z,86.19
2022-11-20T15:55:11.052Z,85.83
2022-11-20T15:57:37.521Z,85.60
2022-11-20T16:00:04.726Z,86.10
2022-11-20T16:02:31.177Z,86.48
2022-11-20T16:04:57.657Z,86.57
2022-11-20T16:07:24.558Z,86.37
2022-11-20T16:09:51.087Z,86.31
2022-11-20T16:12:37.484Z,86.14
2022-11-20T16:15:23.088Z,86.22
2022-11-20T16:17:49.545Z,85.90
2022-11-20T16:20:16.698Z,86.05
2022-11-20T16:22:43.205Z,86.55
2022-11-20T16:25:09.740Z,87.11
2022-11-20T16:27:36.209Z,87.05
2022-11-20T16:30:02.732Z,87.17
2022-11-20T16:32:29.243Z,87.65
2022-11-20T16:34:55.752Z,88.26
2022-11-20T16:37:22.203Z,88.45
2022-11-20T16:39:48.712Z,88.66
2022-11-20T16:42:15.141Z,89.15
2022-11-20T16:44:41.615Z,89.81
2022-11-20T16:47:08.079Z,90.34
2022-11-20T16:49:34.525Z,91.16
2022-11-20T16:52:01.098Z,91.21
2022-11-20T16:54:27.711Z,91.41
2022-11-20T16:56:54.577Z,91.21
2022-11-20T16:59:21.034Z,91.07
2022-11-20T17:01:48.556Z,90.97
2022-11-20T17:04:16.296Z,91.24
2022-11-20T17:06:44.468Z,91.42
2022-11-20T17:09:11.333Z,91.48
2022-11-20T17:11:38.382Z,91.86
2022-11-20T17:14:07.367Z,91.43
2022-11-20T17:16:35.547Z,91.12
2022-11-20T17:19:03.927Z,90.97
2022-11-20T17:21:32.354Z,91.15
2022-11-20T17:24:06.514Z,91.47
2022-11-20T17:26:34.113Z,91.51
2022-11-20T17:29:06.243Z,91.66
2022-11-20T17:31:34.358Z,92.95
2022-11-20T17:34:01.627Z,92.96
2022-11-20T17:36:29.375Z,93.15
2022-11-20T17:38:55.836Z,93.20
2022-11-20T17:41:25.194Z,93.52
2022-11-20T17:43:59.922Z,93.29
2022-11-20T17:46:28.996Z,93.39
2022-11-20T17:48:56.293Z,94.04
2022-11-20T17:51:26.096Z,94.13
2022-11-20T17:53:55.513Z,94.68
2022-11-20T17:56:40.580Z,94.61
2022-11-20T17:59:13.175Z,94.70
2022-11-20T18:01:42.957Z,94.70
2022-11-20T18:04:10.747Z,94.73
2022-11-20T18:06:38.171Z,95.13
2022-11-20T18:09:05.952Z,95.42
2022-11-20T18:11:35.061Z,95.69
2022-11-20T18:14:22.574Z,95.90
2022-11-20T18:16:52.476Z,95.61
2022-11-20T18:19:22.744Z,95.65
2022-11-20T18:21:49.465Z,95.82
2022-11-20T18:24:16.316Z,96.65
2022-11-20T18:26:44.730Z,96.91
2022-11-20T18:29:13.172Z,97.11
2022-11-20T18:31:40.562Z,97.17
2022-11-20T18:34:13.449Z,96.97
2022-11-20T18:36:40.753Z,96.83
2022-11-20T18:39:07.411Z,97.04
2022-11-20T18:41:52.226Z,96.93
2022-11-20T18:44:43.875Z,97.32
2022-11-20T18:47:14.803Z,97.69
2022-11-20T18:49:42.694Z,97.58
2022-11-20T18:52:13.062Z,98.00
2022-11-20T18:54:39.558Z,97.95
2022-11-20T18:57:06.119Z,98.36
2022-11-20T18:59:32.876Z,98.02
2022-11-20T19:02:02.055Z,97.76
2022-11-20T19:04:30.213Z,97.36
2022-11-20T19:06:56.894Z,97.55
2022-11-20T19:09:24.160Z,97.68
2022-11-20T19:11:51.494Z,97.78
2022-11-20T19:14:18.180Z,97.86
2022-11-20T19:16:44.778Z,97.22
2022-11-20T19:19:11.460Z,96.00
2022-11-20T19:21:38.095Z,95.16
2022-11-20T19:24:05.752Z,94.35
2022-11-20T19:26:35.511Z,93.47
2022-11-20T19:29:02.359Z,92.83
2022-11-20T19:31:28.875Z,92.45
2022-11-20T19:33:58.035Z,92.64
2022-11-20T19:36:28.086Z,92.37
2022-11-20T19:38:55.451Z,92.73
2022-11-20T19:41:28.945Z,92.33
2022-11-20T19:44:00.414Z,92.90
2022-11-20T19:46:28.646Z,93.15
2022-11-20T19:48:55.607Z,93.19
2022-11-20T19:51:28.014Z,93.84
2022-11-20T19:53:55.917Z,94.98
2022-11-20T19:56:22.793Z,95.69
2022-11-20T19:58:49.505Z,96.24
2022-11-20T20:01:19.286Z,96.21
2022-11-20T20:03:46.787Z,96.51
2022-11-20T20:06:16.025Z,96.66
2022-11-20T20:08:43.944Z,96.92
2022-11-20T20:11:19.059Z,97.36
2022-11-20T20:13:50.379Z,97.17
2022-11-20T20:16:19.673Z,97.28
2022-11-20T20:18:46.226Z,97.20
2022-11-20T20:21:15.149Z,97.12
2022-11-20T20:23:42.321Z,96.72
2022-11-20T20:26:09.988Z,96.36
2022-11-20T20:28:37.588Z,96.38
2022-11-20T20:31:15.598Z,96.21
2022-11-20T20:33:43.008Z,96.22
2022-11-20T20:36:11.675Z,96.09
2022-11-20T20:38:38.165Z,96.92
2022-11-20T20:41:04.691Z,97.10
2022-11-20T20:43:31.498Z,97.13
2022-11-20T20:45:58.264Z,96.76
2022-11-20T20:48:25.453Z,96.77
2022-11-20T20:51:04.717Z,96.94
2022-11-20T20:53:31.312Z,96.82
2022-11-20T20:56:00.217Z,96.94
2022-11-20T20:58:28.359Z,97.70
2022-11-20T21:00:55.391Z,97.78
2022-11-20T21:03:21.882Z,97.99
2022-11-20T21:05:55.674Z,97.79
2022-11-20T21:08:22.212Z,97.98
2022-11-20T21:10:49.946Z,98.41
2022-11-20T21:13:20.455Z,98.59
2022-11-20T21:15:49.583Z,98.84
2022-11-20T21:18:18.131Z,99.28
2022-11-20T21:21:05.848Z,99.72
2022-11-20T21:23:33.406Z,100.00
2022-11-20T21:26:06.721Z,100.00
2022-11-20T21:28:34.891Z,100.00
2022-11-20T21:31:09.949Z,100.00
2022-11-20T21:33:50.221Z,100.00
2022-11-20T21:36:19.040Z,100.00
2022-11-20T21:38:46.079Z,100.00
2022-11-20T21:41:14.636Z,100.00
2022-11-20T21:43:42.841Z,100.00
2022-11-20T21:46:12.784Z,100.00
2022-11-20T21:48:42.452Z,100.00
2022-11-20T21:51:12.826Z,100.00
2022-11-20T21:53:39.635Z,100.00
2022-11-20T21:56:08.194Z,100.00
2022-11-20T21:58:36.043Z,100.00
2022-11-20T22:01:13.831Z,100.00
2022-11-20T22:03:41.241Z,100.00
2022-11-20T22:06:09.708Z,100.00
2022-11-20T22:08:38.344Z,100.00
2022-11-20T22:11:10.777Z,100.00
2022-11-20T22:13:55.618Z,100.00
2022-11-20T22:16:22.919Z,100.00
2022-11-20T22:18:53.963Z,100.00
2022-11-20T22:21:22.816Z,100.00
2022-11-20T22:23:50.105Z,100.00
2022-11-20T22:26:19.371Z,100.00
2022-11-20T22:28:50.814Z,100.00
2022-11-20T22:31:19.701Z,100.00
2022-11-20T22:33:46.182Z,100.00
2022-11-20T22:36:15.695Z,100.00
2022-11-20T22:38:42.419Z,100.00
2022-11-20T22:41:16.911Z,100.00
2022-11-20T22:43:44.218Z,100.00
2022-11-20T22:46:13.328Z,100.00
2022-11-20T22:48:51.782Z,100.00
2022-11-20T22:51:20.319Z,100.00
2022-11-20T22:53:47.105Z,100.00
2022-11-20T22:56:14.799Z,100.00
2022-11-20T22:58:43.747Z,100.00
2022-11-20T23:01:21.428Z,100.00
2022-11-20T23:03:50.335Z,100.00
2022-11-20T23:06:19.071Z,100.00
2022-11-20T23:08:46.589Z,100.00
2022-11-20T23:11:24.344Z,100.00
2022-11-20T23:13:57.934Z,100.00
2022-11-20T23:16:28.266Z,100.00
2022-11-20T23:18:59.913Z,100.00
2022-11-20T23:21:26.788Z,100.00
2022-11-20T23:23:55.414Z,100.00
2022-11-20T23:26:27.182Z,100.00
2022-11-20T23:28:55.294Z,100.00
2022-11-20T23:31:22.107Z,100.00
2022-11-20T23:33:52.348Z,100.00
2022-11-20T23:36:23.478Z,100.00
2022-11-20T23:38:49.961Z,100.00
2022-11-20T23:41:19.687Z,100.00
2022-11-20T23:43:46.192Z,100.00
2022-11-20T23:46:16.424Z,100.00
2022-11-20T23:48:48.812Z,100.00
2022-11-20T23:51:37.436Z,100.00
2022-11-20T23:54:05.032Z,100.00
2022-11-20T23:56:33.787Z,100.00
2022-11-20T23:59:00.477Z,100.00
